Time;durP1;ratioP1;P1;durP2;ratioP2;P2;SDS_P1;SDS_P2;PMS_P1;PMS_P2;Temp;Humidity;BMP_temperature;BMP_pressure;BME280_temperature;BME280_humidity;BME280_pressure;Samples;Min_cycle;Max_cycle;Signal;HPM_P1;HPM_P2
2022/09/10 00:01:24;;;;;;;;;;;;;;;18.23;100.00;95221.94;5094096;28;1049;-48
2022/09/10 00:03:50;;;;;;;;;;;;;;;18.22;100.00;95223.81;5094159;28;949;-48
2022/09/10 00:06:17;;;;;;;;;;;;;;;18.28;100.00;95214.03;5094170;28;1036;-48
2022/09/10 00:08:44;;;;;;;;;;;;;;;18.27;100.00;95220.50;5094340;28;954;-48
2022/09/10 00:11:10;;;;;;;;;;;;;;;18.23;100.00;95230.06;5093946;28;1914;-48
2022/09/10 00:13:38;;;;;;;;;;;;;;;18.24;100.00;95227.16;5094081;28;976;-48
2022/09/10 00:16:05;;;;;;;;;;;;;;;18.21;100.00;95227.56;5093863;28;1020;-48
2022/09/10 00:18:32;;;;;;;;;;;;;;;18.24;100.00;95237.97;5093873;28;1075;-48
2022/09/10 00:20:58;;;;;;;;;;;;;;;18.17;100.00;95231.72;5093762;28;1012;-48
2022/09/10 00:23:25;;;;;;;;;;;;;;;18.11;100.00;95236.06;5094012;28;993;-48
2022/09/10 00:25:52;;;;;;;;;;;;;;;18.08;100.00;95231.09;5093831;28;1043;-48
2022/09/10 00:28:20;;;;;;;;;;;;;;;18.11;100.00;95244.19;5093831;28;1029;-48
2022/09/10 00:30:48;;;;;;;;;;;;;;;18.23;100.00;95240.88;5093588;28;2000;-48
2022/09/10 00:33:15;;;;;;;;;;;;;;;18.33;100.00;95238.63;5093729;28;985;-48
2022/09/10 00:35:41;;;;;;;;;;;;;;;18.32;100.00;95235.06;5092869;28;1613;-48
2022/09/10 00:38:08;;;;;;;;;;;;;;;18.24;100.00;95226.31;5093902;28;1024;-48
2022/09/10 00:40:35;;;;;;;;;;;;;;;18.16;100.00;95221.94;5093446;28;970;-48
2022/09/10 00:43:01;;;;;;;;;;;;;;;18.24;100.00;95227.16;5093690;28;1041;-48
2022/09/10 00:45:28;;;;;;;;;;;;;;;18.40;100.00;95236.75;5075430;28;1024;-48
2022/09/10 00:47:58;;;;;;;;;;;;;;;18.45;100.00;95231.53;5093793;28;1000;-48
2022/09/10 00:50:34;;;;;;;;;;;;;;;18.33;100.00;95234.03;5093195;28;1914;-48
2022/09/10 00:53:04;;;;;;;;;;;;;;;18.35;100.00;95244.66;5093643;28;1047;-48
2022/09/10 00:55:33;;;;;;;;;;;;;;;18.43;100.00;95241.72;5093427;28;953;-48
2022/09/10 00:57:59;;;;;;;;;;;;;;;18.44;100.00;95221.75;5093356;28;1115;-48
2022/09/10 01:00:25;;;;;;;;;;;;;;;18.42;100.00;95210.31;5093458;28;965;-48
2022/09/10 01:02:53;;;;;;;;;;;;;;;18.34;100.00;95211.34;5093634;28;1048;-48
2022/09/10 01:05:20;;;;;;;;;;;;;;;18.31;100.00;95213.63;5093321;28;987;-48
2022/09/10 01:07:47;;;;;;;;;;;;;;;18.29;100.00;95216.53;5093493;28;962;-48
2022/09/10 01:10:20;;;;;;;;;;;;;;;18.26;100.00;95216.94;5093220;28;1910;-48
2022/09/10 01:12:46;;;;;;;;;;;;;;;18.25;100.00;95207.19;5093337;28;1092;-48
2022/09/10 01:15:31;;;;;;;;;;;;;;;18.20;100.00;95195.31;5093424;28;965;-48
2022/09/10 01:17:57;;;;;;;;;;;;;;;18.16;100.00;95200.28;5075370;28;1013;-48
2022/09/10 01:20:42;;;;;;;;;;;;;;;18.10;100.00;95187.59;5093184;28;977;-48
2022/09/10 01:23:23;;;;;;;;;;;;;;;18.02;100.00;95191.34;5093235;28;1039;-48
2022/09/10 01:26:05;;;;;;;;;;;;;;;18.12;100.00;95196.34;5075293;28;1049;-48
2022/09/10 01:28:37;;;;;;;;;;;;;;;18.17;100.00;95190.28;5093257;28;1041;-48
2022/09/10 01:31:10;;;;;;;;;;;;;;;18.21;100.00;95186.13;5093007;28;1910;-48
2022/09/10 01:33:41;;;;;;;;;;;;;;;18.07;100.00;95171.78;5093055;28;946;-48
2022/09/10 01:36:12;;;;;;;;;;;;;;;18.09;100.00;95180.50;5093195;28;1075;-48
2022/09/10 01:38:40;;;;;;;;;;;;;;;18.04;100.00;95183.00;5093206;28;1095;-48
2022/09/10 01:41:06;;;;;;;;;;;;;;;18.09;100.00;95192.16;5093013;28;969;-48
2022/09/10 01:43:33;;;;;;;;;;;;;;;18.06;100.00;95195.31;5092960;28;1072;-48
2022/09/10 01:45:58;;;;;;;;;;;;;;;17.98;100.00;95191.94;5092892;28;954;-48
2022/09/10 01:48:45;;;;;;;;;;;;;;;17.94;100.00;95191.53;5096591;28;1020;-48
2022/09/10 01:51:14;;;;;;;;;;;;;;;17.88;100.00;95190.47;5082465;28;2115;-48
2022/09/10 01:53:51;;;;;;;;;;;;;;;17.84;100.00;95199.19;5101569;28;1217;-48
2022/09/10 01:56:26;;;;;;;;;;;;;;;17.78;100.00;95200.00;5116875;28;1076;-48
2022/09/10 01:58:56;;;;;;;;;;;;;;;17.86;100.00;95199.84;5116990;28;1171;-48
2022/09/10 02:01:31;;;;;;;;;;;;;;;17.93;100.00;95198.81;5117017;28;1060;-48
2022/09/10 02:04:00;;;;;;;;;;;;;;;17.93;100.00;95203.41;5116977;28;1106;-48
2022/09/10 02:06:28;;;;;;;;;;;;;;;17.91;100.00;95194.66;5116730;28;1020;-48
2022/09/10 02:08:55;;;;;;;;;;;;;;;18.02;100.00;95204.88;5116911;28;1065;-48
2022/09/10 02:11:22;;;;;;;;;;;;;;;18.10;100.00;95215.47;5116499;28;1906;-48
2022/09/10 02:13:48;;;;;;;;;;;;;;;17.91;100.00;95213.59;5116952;28;965;-48
2022/09/10 02:16:17;;;;;;;;;;;;;;;17.89;100.00;95204.81;5116686;28;1052;-48
2022/09/10 02:18:43;;;;;;;;;;;;;;;17.86;100.00;95218.78;5116784;28;1071;-48
2022/09/10 02:21:10;;;;;;;;;;;;;;;17.91;100.00;95232.53;5116717;28;1280;-48
2022/09/10 02:23:47;;;;;;;;;;;;;;;17.87;100.00;95233.94;5116299;28;1016;-48
2022/09/10 02:26:14;;;;;;;;;;;;;;;17.78;100.00;95233.28;5116782;28;1042;-48
2022/09/10 02:28:42;;;;;;;;;;;;;;;17.78;100.00;95233.28;5116295;28;1079;-48
2022/09/10 02:31:08;;;;;;;;;;;;;;;17.73;100.00;95236.59;5116421;28;1910;-48
2022/09/10 02:33:34;;;;;;;;;;;;;;;17.85;100.00;95236.88;5116218;28;1019;-48
2022/09/10 02:36:01;;;;;;;;;;;;;;;17.97;100.00;95234.41;5116280;28;1032;-48
2022/09/10 02:38:28;;;;;;;;;;;;;;;18.00;100.00;95233.97;5115919;28;961;-48
2022/09/10 02:40:56;;;;;;;;;;;;;;;17.96;100.00;95230.00;5116174;28;1093;-48
2022/09/10 02:43:22;;;;;;;;;;;;;;;17.96;100.00;95213.78;5115855;28;1143;-48
2022/09/10 02:45:48;;;;;;;;;;;;;;;18.00;100.00;95219.63;5116104;28;1163;-48
2022/09/10 02:48:14;;;;;;;;;;;;;;;18.02;100.00;95222.94;5115856;28;1083;-48
2022/09/10 02:50:40;;;;;;;;;;;;;;;18.04;100.00;95210.91;5115815;28;2003;-48
2022/09/10 02:53:06;;;;;;;;;;;;;;;17.99;100.00;95201.75;5115663;28;1141;-48
2022/09/10 02:55:32;;;;;;;;;;;;;;;17.93;100.00;95196.09;5095713;28;1116;-48
2022/09/10 02:57:57;;;;;;;;;;;;;;;17.83;100.00;95174.00;5094949;28;950;-48
2022/09/10 03:00:23;;;;;;;;;;;;;;;17.80;100.00;95151.97;5095232;28;1009;-48
2022/09/10 03:02:49;;;;;;;;;;;;;;;17.82;100.00;95142.59;5095263;28;1037;-48
2022/09/10 03:05:16;;;;;;;;;;;;;;;17.93;100.00;95154.72;5095342;28;1059;-48
2022/09/10 03:07:42;;;;;;;;;;;;;;;18.08;100.00;95163.47;5095128;28;1045;-48
2022/09/10 03:10:09;;;;;;;;;;;;;;;18.17;100.00;95174.06;5095236;28;1005;-48
2022/09/10 03:12:35;;;;;;;;;;;;;;;18.31;100.00;95181.16;5095178;28;1992;-48
2022/09/10 03:15:01;;;;;;;;;;;;;;;18.32;100.00;95190.91;5095267;28;965;-48
2022/09/10 03:17:27;;;;;;;;;;;;;;;18.33;100.00;95181.78;5094891;28;997;-48
2022/09/10 03:19:53;;;;;;;;;;;;;;;18.30;100.00;95176.78;5095136;28;961;-49
2022/09/10 03:22:19;;;;;;;;;;;;;;;18.39;100.00;95163.88;5094858;28;1016;-48
2022/09/10 03:24:46;;;;;;;;;;;;;;;18.39;100.00;95175.53;5095186;28;993;-48
2022/09/10 03:27:14;;;;;;;;;;;;;;;18.34;100.00;95178.00;5095140;28;961;-48
2022/09/10 03:29:41;;;;;;;;;;;;;;;18.32;100.00;95177.38;5094870;28;1053;-48
2022/09/10 03:32:07;;;;;;;;;;;;;;;18.35;100.00;95179.69;5094906;28;1906;-48
2022/09/10 03:34:33;;;;;;;;;;;;;;;18.33;100.00;95174.47;5094684;28;1174;-48
2022/09/10 03:36:59;;;;;;;;;;;;;;;18.33;100.00;95182.59;5094733;28;1029;-48
2022/09/10 03:39:25;;;;;;;;;;;;;;;18.39;100.00;95189.06;5094748;28;1041;-49
2022/09/10 03:41:51;;;;;;;;;;;;;;;18.47;100.00;95198.84;5094633;28;1099;-49
2022/09/10 03:44:17;;;;;;;;;;;;;;;18.37;100.00;95199.25;5094347;28;1024;-48
2022/09/10 03:46:44;;;;;;;;;;;;;;;18.30;100.00;95207.38;5094731;28;961;-49
2022/09/10 03:49:10;;;;;;;;;;;;;;;18.32;100.00;95199.03;5094365;28;1028;-48
2022/09/10 03:51:36;;;;;;;;;;;;;;;18.34;100.00;95210.50;5094116;28;1926;-48
2022/09/10 03:54:02;;;;;;;;;;;;;;;18.30;100.00;95198.41;5102350;28;1150;-49
2022/09/10 03:56:28;;;;;;;;;;;;;;;18.31;100.00;95194.69;5114685;28;1095;-49
2022/09/10 03:58:54;;;;;;;;;;;;;;;18.36;100.00;95197.59;5114582;28;1024;-48
2022/09/10 04:01:20;;;;;;;;;;;;;;;18.39;100.00;95196.34;5114698;28;1027;-48
2022/09/10 04:03:46;;;;;;;;;;;;;;;18.36;100.00;95191.34;5114532;28;1861;-48
2022/09/10 04:06:13;;;;;;;;;;;;;;;18.29;100.00;95191.34;5114599;28;1011;-48
2022/09/10 04:08:39;;;;;;;;;;;;;;;18.29;100.00;95188.66;5114558;28;1400;-48
2022/09/10 04:11:05;;;;;;;;;;;;;;;18.30;100.00;95183.00;5114583;28;1905;-48
2022/09/10 04:13:31;;;;;;;;;;;;;;;18.34;100.00;95186.13;5114418;28;995;-48
2022/09/10 04:15:59;;;;;;;;;;;;;;;18.16;100.00;95175.13;5114483;28;1009;-48
2022/09/10 04:18:26;;;;;;;;;;;;;;;18.12;100.00;95172.81;5114250;28;1074;-48
2022/09/10 04:20:53;;;;;;;;;;;;;;;18.22;100.00;95163.47;5114270;28;950;-48
2022/09/10 04:23:19;;;;;;;;;;;;;;;18.36;100.00;95178.63;5114422;28;1143;-49
2022/09/10 04:25:45;;;;;;;;;;;;;;;18.52;100.00;95178.22;5114332;28;1056;-49
2022/09/10 04:28:12;;;;;;;;;;;;;;;18.51;100.00;95176.53;5114348;28;967;-49
2022/09/10 04:30:39;;;;;;;;;;;;;;;18.32;100.00;95172.81;5113964;28;2046;-49
2022/09/10 04:33:06;;;;;;;;;;;;;;;18.29;100.00;95177.81;5114199;28;1039;-49
2022/09/10 04:35:32;;;;;;;;;;;;;;;18.31;100.00;95175.75;5113849;28;958;-48
2022/09/10 04:37:58;;;;;;;;;;;;;;;18.29;100.00;95184.06;5114096;28;988;-48
2022/09/10 04:40:26;;;;;;;;;;;;;;;18.34;100.00;95186.13;5095846;28;1041;-48
2022/09/10 04:42:52;;;;;;;;;;;;;;;18.34;100.00;95183.44;5113976;28;1008;-48
2022/09/10 04:45:18;;;;;;;;;;;;;;;18.19;100.00;95171.97;5113826;28;1015;-48
2022/09/10 04:47:45;;;;;;;;;;;;;;;18.19;100.00;95172.81;5113974;28;949;-48
2022/09/10 04:50:13;;;;;;;;;;;;;;;18.23;100.00;95173.22;5113518;28;1241;-48
2022/09/10 04:52:39;;;;;;;;;;;;;;;18.36;100.00;95189.47;5113898;28;1971;-48
2022/09/10 04:55:05;;;;;;;;;;;;;;;18.42;100.00;95194.06;5097131;28;1185;-48
2022/09/10 04:57:31;;;;;;;;;;;;;;;18.51;100.00;95189.25;5093598;28;1008;-48
2022/09/10 04:59:57;;;;;;;;;;;;;;;18.57;100.00;95184.88;5093398;28;1021;-48
2022/09/10 05:02:23;;;;;;;;;;;;;;;18.56;100.00;95191.34;5093466;28;976;-48
2022/09/10 05:04:49;;;;;;;;;;;;;;;18.54;100.00;95186.13;5093221;28;1111;-48
2022/09/10 05:07:15;;;;;;;;;;;;;;;18.51;100.00;95179.25;5093504;28;1091;-50
2022/09/10 05:09:41;;;;;;;;;;;;;;;18.50;100.00;95177.59;5093419;28;1024;-47
2022/09/10 05:12:07;;;;;;;;;;;;;;;18.44;100.00;95166.75;5093187;28;1917;-47
2022/09/10 05:14:33;;;;;;;;;;;;;;;18.43;100.00;95175.94;5093106;28;1013;-48
2022/09/10 05:16:59;;;;;;;;;;;;;;;18.47;100.00;95178.00;5093290;28;1021;-48
2022/09/10 05:19:25;;;;;;;;;;;;;;;18.53;100.00;95181.75;5093180;28;1691;-48
2022/09/10 05:21:51;;;;;;;;;;;;;;;18.56;100.00;95175.09;5094422;28;1140;-47
2022/09/10 05:24:17;;;;;;;;;;;;;;;18.42;100.00;95152.59;5097402;28;1078;-47
2022/09/10 05:26:43;;;;;;;;;;;;;;;18.48;100.00;95170.75;5097292;28;1056;-47
2022/09/10 05:29:10;;;;;;;;;;;;;;;18.62;100.00;95185.09;5097166;28;1107;-48
2022/09/10 05:31:36;;;;;;;;;;;;;;;18.75;100.00;95193.19;5096901;28;1918;-47
2022/09/10 05:34:02;;;;;;;;;;;;;;;18.86;100.00;95195.28;5097134;28;1017;-47
2022/09/10 05:36:30;;;;;;;;;;;;;;;18.81;100.00;95191.53;5097064;28;1004;-47
2022/09/10 05:38:57;;;;;;;;;;;;;;;18.80;100.00;95188.00;5097207;28;965;-47
2022/09/10 05:41:23;;;;;;;;;;;;;;;18.95;100.00;95185.03;5096830;28;1030;-47
2022/09/10 05:43:49;;;;;;;;;;;;;;;18.92;100.00;95172.75;5107975;28;1878;-47
2022/09/10 05:46:15;;;;;;;;;;;;;;;18.90;100.00;95174.84;5107878;28;1341;-47
2022/09/10 05:48:42;;;;;;;;;;;;;;;18.88;100.00;95170.69;5111324;28;1288;-47
2022/09/10 05:51:08;;;;;;;;;;;;;;;18.96;100.00;95172.34;5106651;28;1984;-47
2022/09/10 05:53:34;;;;;;;;;;;;;;;19.06;100.00;95178.94;5113246;28;1144;-48
2022/09/10 05:56:00;;;;;;;;;;;;;;;19.04;100.00;95170.22;5096612;28;1102;-49
2022/09/10 05:58:29;;;;;;;;;;;;;;;19.08;100.00;95181.47;5096641;28;1040;-48
2022/09/10 06:00:56;;;;;;;;;;;;;;;19.08;100.00;95187.72;5096571;28;1039;-48
2022/09/10 06:03:23;;;;;;;;;;;;;;;19.13;100.00;95188.97;5096444;28;1016;-48
2022/09/10 06:05:50;;;;;;;;;;;;;;;19.24;100.00;95199.16;5096631;28;1043;-48
2022/09/10 06:08:16;;;;;;;;;;;;;;;19.25;100.00;95206.22;5096437;28;1031;-48
2022/09/10 06:10:42;;;;;;;;;;;;;;;19.29;100.00;95197.47;5096410;28;1913;-48
2022/09/10 06:13:10;;;;;;;;;;;;;;;19.44;100.00;95199.06;5096361;28;1048;-48
2022/09/10 06:15:36;;;;;;;;;;;;;;;19.51;100.00;95200.69;5096235;28;949;-48
2022/09/10 06:18:03;;;;;;;;;;;;;;;19.59;100.00;95196.88;5096310;28;1020;-48
2022/09/10 06:20:29;;;;;;;;;;;;;;;19.72;100.00;95206.03;5096005;28;1189;-49
2022/09/10 06:22:55;;;;;;;;;;;;;;;19.80;100.00;95197.66;5096379;28;1047;-48
2022/09/10 06:25:21;;;;;;;;;;;;;;;19.98;100.00;95192.34;5096008;28;1079;-48
2022/09/10 06:27:47;;;;;;;;;;;;;;;20.04;100.00;95190.63;5096141;28;1035;-48
2022/09/10 06:30:13;;;;;;;;;;;;;;;19.91;100.00;95196.13;5096076;28;1039;-48
2022/09/10 06:32:39;;;;;;;;;;;;;;;19.94;100.00;95199.25;5095246;28;1906;-48
2022/09/10 06:35:05;;;;;;;;;;;;;;;20.61;100.00;95196.06;5095594;28;1024;-48
2022/09/10 06:37:33;;;;;;;;;;;;;;;20.98;100.00;95191.53;5102183;28;1139;-48
2022/09/10 06:40:00;;;;;;;;;;;;;;;20.78;100.00;95197.16;5116397;28;1048;-48
2022/09/10 06:42:26;;;;;;;;;;;;;;;20.80;100.00;95197.75;5116079;28;1036;-48
2022/09/10 06:44:52;;;;;;;;;;;;;;;21.56;96.65;95205.75;5116165;28;1032;-48
2022/09/10 06:47:18;;;;;;;;;;;;;;;21.18;99.00;95210.31;5115930;28;1063;-49
2022/09/10 06:49:44;;;;;;;;;;;;;;;21.10;99.66;95205.19;5116355;28;1035;-48
2022/09/10 06:52:12;;;;;;;;;;;;;;;23.42;88.23;95207.41;5115766;28;1969;-49
2022/09/10 06:54:38;;;;;;;;;;;;;;;27.07;69.84;95211.66;5102858;28;1142;-49
2022/09/10 06:57:04;;;;;;;;;;;;;;;26.33;71.70;95215.06;5095455;28;1025;-49
2022/09/10 06:59:30;;;;;;;;;;;;;;;28.78;62.92;95211.28;5095398;28;1558;-49
2022/09/10 07:01:56;;;;;;;;;;;;;;;31.31;53.90;95209.91;5095291;28;1072;-50
2022/09/10 07:04:22;;;;;;;;;;;;;;;32.34;50.83;95200.47;5095325;28;1021;-49
2022/09/10 07:06:48;;;;;;;;;;;;;;;33.99;46.12;95204.91;5077254;28;1040;-50
2022/09/10 07:09:14;;;;;;;;;;;;;;;34.88;43.16;95213.81;5095381;28;1131;-50
2022/09/10 07:11:40;;;;;;;;;;;;;;;35.80;40.93;95219.00;5095074;28;1911;-51
2022/09/10 07:14:09;;;;;;;;;;;;;;;36.40;39.57;95214.81;5095245;28;988;-51
2022/09/10 07:16:35;;;;;;;;;;;;;;;36.45;40.33;95218.25;5094841;28;961;-51
2022/09/10 07:19:01;;;;;;;;;;;;;;;32.08;48.11;95223.75;5095319;28;1070;-50
2022/09/10 07:21:27;;;;;;;;;;;;;;;28.27;59.23;95217.47;5095165;28;950;-50
2022/09/10 07:23:54;;;;;;;;;;;;;;;25.84;69.04;95223.28;5095092;28;980;-50
2022/09/10 07:26:20;;;;;;;;;;;;;;;24.09;77.39;95222.44;5094948;28;1028;-50
2022/09/10 07:28:47;;;;;;;;;;;;;;;23.42;82.59;95223.78;5094845;28;1044;-50
2022/09/10 07:31:19;;;;;;;;;;;;;;;22.98;84.11;95209.69;5094725;28;1906;-50
2022/09/10 07:33:46;;;;;;;;;;;;;;;22.68;86.49;95205.16;5094955;28;1025;-49
2022/09/10 07:36:12;;;;;;;;;;;;;;;23.03;85.37;95196.22;5094744;28;1032;-50
2022/09/10 07:38:39;;;;;;;;;;;;;;;25.36;75.89;95213.91;5094645;28;1040;-50
2022/09/10 07:41:06;;;;;;;;;;;;;;;27.83;64.40;95213.19;5094732;28;1024;-49
2022/09/10 07:43:32;;;;;;;;;;;;;;;26.75;68.24;95211.69;5094386;28;1072;-50
2022/09/10 07:45:58;;;;;;;;;;;;;;;26.57;70.41;95206.53;5094586;28;1025;-50
2022/09/10 07:48:26;;;;;;;;;;;;;;;26.94;69.75;95206.63;5094472;28;1056;-50
2022/09/10 07:50:52;;;;;;;;;;;;;;;27.19;66.50;95207.88;5094404;28;1929;-50
2022/09/10 07:53:18;;;;;;;;;;;;;;;27.28;67.75;95200.84;5095970;28;1182;-50
2022/09/10 07:55:44;;;;;;;;;;;;;;;26.54;68.84;95199.69;5114860;28;1016;-50
2022/09/10 07:58:10;;;;;;;;;;;;;;;25.76;72.42;95199.91;5114527;28;1012;-50
2022/09/10 08:00:37;;;;;;;;;;;;;;;25.49;75.28;95202.59;5114912;28;1028;-50
2022/09/10 08:03:03;;;;;;;;;;;;;;;25.80;75.06;95192.84;5114642;28;1023;-50
2022/09/10 08:05:30;;;;;;;;;;;;;;;25.88;74.30;95189.66;5114636;28;1004;-50
2022/09/10 08:07:56;;;;;;;;;;;;;;;26.13;73.03;95193.78;5114582;28;1036;-50
2022/09/10 08:10:23;;;;;;;;;;;;;;;26.48;70.29;95193.31;5114392;28;1033;-50
2022/09/10 08:12:48;;;;;;;;;;;;;;;26.73;70.86;95189.19;5114208;28;1975;-50
2022/09/10 08:15:15;;;;;;;;;;;;;;;26.82;70.80;95192.25;5114595;28;980;-50
2022/09/10 08:17:41;;;;;;;;;;;;;;;26.76;69.86;95190.56;5114374;28;1024;-50
2022/09/10 08:20:08;;;;;;;;;;;;;;;26.76;70.87;95190.56;5114561;28;974;-50
2022/09/10 08:22:34;;;;;;;;;;;;;;;26.90;69.49;95185.44;5114145;28;993;-50
2022/09/10 08:25:01;;;;;;;;;;;;;;;27.04;69.25;95192.97;5114340;28;958;-50
2022/09/10 08:27:27;;;;;;;;;;;;;;;26.85;71.15;95188.97;5114030;28;1083;-50
2022/09/10 08:29:53;;;;;;;;;;;;;;;26.10;72.61;95186.06;5114047;28;1076;-50
2022/09/10 08:32:19;;;;;;;;;;;;;;;25.52;75.02;95196.63;5113965;28;1906;-50
2022/09/10 08:34:47;;;;;;;;;;;;;;;25.12;75.39;95193.03;5113979;28;1048;-50
2022/09/10 08:37:15;;;;;;;;;;;;;;;24.87;77.85;95200.84;5114171;28;1028;-50
2022/09/10 08:39:41;;;;;;;;;;;;;;;24.81;79.39;95199.09;5113987;28;1097;-50
2022/09/10 08:42:21;;;;;;;;;;;;;;;25.56;74.57;95186.81;5113984;28;1036;-50
2022/09/10 08:44:57;;;;;;;;;;;;;;;26.09;75.49;95188.00;5114073;28;1068;-50
2022/09/10 08:47:42;;;;;;;;;;;;;;;26.14;71.06;95191.88;5114172;28;999;-50
2022/09/10 08:50:21;;;;;;;;;;;;;;;26.19;72.93;95190.00;5113633;28;1122;-49
2022/09/10 08:52:53;;;;;;;;;;;;;;;25.98;73.53;95182.66;5114131;28;1918;-50
2022/09/10 08:55:19;;;;;;;;;;;;;;;25.32;74.77;95186.22;5094893;28;1959;-50
2022/09/10 08:57:50;;;;;;;;;;;;;;;25.13;76.64;95181.00;5092804;28;1009;-50
2022/09/10 09:00:19;;;;;;;;;;;;;;;24.88;77.23;95172.44;5093373;28;981;-50
2022/09/10 09:03:00;;;;;;;;;;;;;;;24.66;77.04;95169.63;5093547;28;1080;-50
2022/09/10 09:05:27;;;;;;;;;;;;;;;24.54;79.45;95165.06;5093162;28;1971;-49
2022/09/10 09:07:53;;;;;;;;;;;;;;;25.19;75.60;95159.19;5093384;28;1021;-50
2022/09/10 09:10:27;;;;;;;;;;;;;;;25.84;71.60;95152.09;5093139;28;1020;-50
2022/09/10 09:13:05;;;;;;;;;;;;;;;25.87;71.09;95149.63;5093435;28;1910;-49
2022/09/10 09:15:36;;;;;;;;;;;;;;;25.43;74.42;95144.22;5093102;28;1000;-50
2022/09/10 09:18:17;;;;;;;;;;;;;;;25.60;72.56;95135.13;5093576;28;978;-50
2022/09/10 09:20:45;;;;;;;;;;;;;;;25.82;72.16;95135.91;5093386;28;1048;-50
2022/09/10 09:23:25;;;;;;;;;;;;;;;26.07;71.47;95127.16;5093431;28;1059;-50
2022/09/10 09:26:08;;;;;;;;;;;;;;;26.22;71.20;95129.22;5093223;28;1033;-50
2022/09/10 09:28:55;;;;;;;;;;;;;;;26.44;70.91;95126.38;5093348;28;1024;-50
2022/09/10 09:31:24;;;;;;;;;;;;;;;26.43;70.72;95118.44;5093295;28;1983;-50
2022/09/10 09:33:54;;;;;;;;;;;;;;;26.51;71.88;95112.47;5093120;28;965;-50
2022/09/10 09:36:26;;;;;;;;;;;;;;;26.54;69.59;95114.69;5093069;28;946;-50
2022/09/10 09:38:52;;;;;;;;;;;;;;;26.71;70.61;95109.06;5093299;28;955;-50
2022/09/10 09:41:30;;;;;;;;;;;;;;;26.70;65.71;95107.41;5093195;28;965;-50
2022/09/10 09:44:02;;;;;;;;;;;;;;;26.93;67.77;95111.69;5093050;28;1055;-50
2022/09/10 09:46:28;;;;;;;;;;;;;;;27.06;68.46;95099.41;5093077;28;1255;-50
2022/09/10 09:48:57;;;;;;;;;;;;;;;27.06;68.23;95094.75;5093025;28;1017;-50
2022/09/10 09:51:24;;;;;;;;;;;;;;;26.61;69.25;95082.41;5092686;28;1898;-50
2022/09/10 09:53:54;;;;;;;;;;;;;;;26.88;67.46;95086.94;5099370;28;1193;-50
2022/09/10 09:56:22;;;;;;;;;;;;;;;27.12;66.71;95078.31;5113278;28;1072;-50
2022/09/10 09:58:49;;;;;;;;;;;;;;;26.64;68.41;95070.91;5113407;28;969;-49
2022/09/10 10:01:25;;;;;;;;;;;;;;;26.84;65.08;95069.38;5113046;28;1079;-50
2022/09/10 10:04:00;;;;;;;;;;;;;;;27.02;66.10;95060.69;5101619;28;1216;-51
2022/09/10 10:06:31;;;;;;;;;;;;;;;27.18;65.86;95063.50;5106742;28;1264;-49
2022/09/10 10:09:05;;;;;;;;;;;;;;;27.57;66.56;95060.41;5116202;28;1008;-50
2022/09/10 10:11:47;;;;;;;;;;;;;;;27.78;65.56;95070.31;5110338;28;1988;-49
2022/09/10 10:14:19;;;;;;;;;;;;;;;27.67;66.42;95065.91;5116731;28;1029;-49
2022/09/10 10:16:47;;;;;;;;;;;;;;;27.54;64.59;95060.94;5116911;28;984;-50
2022/09/10 10:19:43;;;;;;;;;;;;;;;27.70;66.16;95059.88;5116580;28;1032;-49
2022/09/10 10:22:19;;;;;;;;;;;;;;;27.30;63.32;95050.44;5090528;28;1525;-50
2022/09/10 10:24:46;;;;;;;;;;;;;;;27.01;64.70;95045.31;5105952;28;1319;-48
2022/09/10 10:27:17;;;;;;;;;;;;;;;27.06;65.78;95050.84;5113567;28;1307;-50
2022/09/10 10:30:09;;;;;;;;;;;;;;;27.19;65.69;95049.53;5113236;28;1228;-50
2022/09/10 10:32:40;;;;;;;;;;;;;;;27.35;64.15;95044.94;5072035;28;1981;-48
2022/09/10 10:35:06;;;;;;;;;;;;;;;27.42;64.78;95040.03;5095755;28;1033;-48
2022/09/10 10:37:47;;;;;;;;;;;;;;;27.38;64.51;95041.66;5096084;28;1048;-48
2022/09/10 10:40:21;;;;;;;;;;;;;;;27.41;64.88;95041.13;5095921;28;1033;-48
2022/09/10 10:43:06;;;;;;;;;;;;;;;27.35;65.45;95025.72;5095936;28;1036;-49
2022/09/10 10:45:52;;;;;;;;;;;;;;;27.62;66.10;95030.19;5095502;28;1021;-49
2022/09/10 10:48:47;;;;;;;;;;;;;;;27.80;64.49;95020.63;5095689;28;1064;-49
2022/09/10 10:51:39;;;;;;;;;;;;;;;27.79;65.70;95022.53;5091472;28;1980;-50
2022/09/10 10:54:13;;;;;;;;;;;;;;;27.71;64.72;95025.00;5107505;28;1234;-50
2022/09/10 10:56:41;;;;;;;;;;;;;;;27.63;65.14;95018.13;5095366;28;1526;-50
2022/09/10 10:59:27;;;;;;;;;;;;;;;27.58;64.11;95018.91;5104567;28;1448;-51
2022/09/10 11:01:56;;;;;;;;;;;;;;;27.57;63.68;95019.22;5104822;28;1221;-50
2022/09/10 11:04:22;;;;;;;;;;;;;;;27.67;65.39;95016.47;5088939;28;1174;-50
2022/09/10 11:06:54;;;;;;;;;;;;;;;27.76;60.73;95014.03;5115822;28;1021;-50
2022/09/10 11:09:37;;;;;;;;;;;;;;;27.69;60.11;95006.03;5115641;28;1127;-49
2022/09/10 11:12:12;;;;;;;;;;;;;;;27.64;61.46;95006.03;5115567;28;1914;-55
2022/09/10 11:14:38;;;;;;;;;;;;;;;27.65;63.15;94999.44;5115543;28;1012;-50
2022/09/10 11:17:16;;;;;;;;;;;;;;;27.74;63.64;94989.56;5115648;28;1040;-53
2022/09/10 11:19:46;;;;;;;;;;;;;;;27.65;62.09;94986.53;5115071;28;971;-51
2022/09/10 11:22:19;;;;;;;;;;;;;;;27.58;63.01;94980.47;5115431;28;1053;-51
2022/09/10 11:24:51;;;;;;;;;;;;;;;27.64;59.08;94984.91;5115431;28;1036;-51
2022/09/10 11:27:28;;;;;;;;;;;;;;;27.67;60.27;94983.50;5115151;28;1036;-50
2022/09/10 11:29:58;;;;;;;;;;;;;;;27.66;59.80;94987.38;5115607;28;1027;-51
2022/09/10 11:32:25;;;;;;;;;;;;;;;27.59;58.91;94981.31;5115111;28;1972;-51
2022/09/10 11:34:52;;;;;;;;;;;;;;;27.57;58.47;94980.78;5115340;28;992;-51
2022/09/10 11:37:23;;;;;;;;;;;;;;;27.37;60.91;94973.31;5114977;28;964;-51
2022/09/10 11:39:51;;;;;;;;;;;;;;;27.26;60.15;94965.06;5115126;28;1052;-51
2022/09/10 11:42:23;;;;;;;;;;;;;;;27.34;60.95;94960.97;5114766;28;1164;-51
2022/09/10 11:44:57;;;;;;;;;;;;;;;27.35;62.02;94973.56;5115225;28;1083;-51
2022/09/10 11:47:37;;;;;;;;;;;;;;;27.28;63.50;94975.78;5114875;28;977;-50
2022/09/10 11:53:26;;;;;;;;;;;;;;;27.11;61.65;94964.16;3887965;27;2398;-50
2022/09/10 11:56:16;;;;;;;;;;;;;;;27.29;60.44;94960.94;5094465;28;1076;-51
2022/09/10 11:58:58;;;;;;;;;;;;;;;27.40;62.20;94957.13;5083880;28;1758;-50
2022/09/10 12:01:33;;;;;;;;;;;;;;;27.36;61.45;94966.19;5094352;28;985;-51
2022/09/10 12:04:08;;;;;;;;;;;;;;;27.25;60.19;94957.91;5094478;28;961;-51
2022/09/10 12:06:58;;;;;;;;;;;;;;;27.18;59.64;94949.06;5094018;28;1207;-49
2022/09/10 12:09:27;;;;;;;;;;;;;;;27.08;60.84;94952.63;5094383;28;1389;-51
2022/09/10 12:11:59;;;;;;;;;;;;;;;26.91;59.77;94946.53;5093929;28;1918;-50
2022/09/10 12:14:26;;;;;;;;;;;;;;;26.76;59.09;94943.75;5094224;28;957;-49
2022/09/10 12:16:52;;;;;;;;;;;;;;;26.65;58.86;94940.97;5093954;28;1866;-48
2022/09/10 12:19:21;;;;;;;;;;;;;;;26.62;60.33;94941.50;5093895;28;1562;-49
2022/09/10 12:21:49;;;;;;;;;;;;;;;26.60;59.22;94940.94;5093799;28;1064;-49
2022/09/10 12:24:27;;;;;;;;;;;;;;;26.62;59.87;94938.75;5093786;28;1029;-50
2022/09/10 12:26:53;;;;;;;;;;;;;;;26.66;61.66;94939.84;5093641;28;1064;-50
2022/09/10 12:29:32;;;;;;;;;;;;;;;26.81;60.28;94932.78;5093668;28;1040;-50
2022/09/10 12:32:07;;;;;;;;;;;;;;;27.08;59.84;94930.66;5092557;28;1914;-50
2022/09/10 12:34:34;;;;;;;;;;;;;;;27.24;60.20;94922.47;5093871;28;1174;-51
2022/09/10 12:37:00;;;;;;;;;;;;;;;27.27;59.80;94927.47;5093724;28;1039;-50
2022/09/10 12:39:26;;;;;;;;;;;;;;;27.19;60.59;94928.78;5093579;28;1071;-51
2022/09/10 12:41:52;;;;;;;;;;;;;;;27.19;60.04;94922.47;5093485;28;1037;-50
2022/09/10 12:44:24;;;;;;;;;;;;;;;27.21;59.98;94920.28;5093381;28;1306;-50
2022/09/10 12:47:22;;;;;;;;;;;;;;;27.25;59.25;94915.94;5093376;28;1072;-50
2022/09/10 12:50:14;;;;;;;;;;;;;;;27.53;60.62;94908.28;5048997;28;1846;-50
2022/09/10 12:52:50;;;;;;;;;;;;;;;27.84;59.00;94909.91;5089324;28;1995;-51
2022/09/10 12:55:35;;;;;;;;;;;;;;;27.91;58.23;94906.09;5111487;28;2021;-51
2022/09/10 12:58:19;;;;;;;;;;;;;;;28.04;57.99;94916.53;5113824;28;1041;-51
2022/09/10 13:00:54;;;;;;;;;;;;;;;27.97;56.23;94916.78;5113755;28;1036;-51
2022/09/10 13:03:22;;;;;;;;;;;;;;;27.81;55.25;94913.22;5113438;28;989;-50
2022/09/10 13:05:50;;;;;;;;;;;;;;;27.67;57.15;94908.56;5113918;28;962;-51
2022/09/10 13:08:20;;;;;;;;;;;;;;;27.58;55.97;94906.34;5113484;28;1025;-51